createdAt,value
2019-05-14T00:01:31.900Z,99.90
2019-05-14T00:04:22.053Z,99.90
2019-05-14T00:07:11.978Z,99.90
2019-05-14T00:10:01.274Z,99.90
2019-05-14T00:12:51.295Z,99.90
2019-05-14T00:15:41.497Z,99.90
2019-05-14T00:18:31.525Z,99.90
2019-05-14T00:21:21.238Z,99.90
2019-05-14T00:24:11.369Z,99.90
2019-05-14T00:27:02.064Z,99.90
2019-05-14T00:29:51.808Z,99.90
2019-05-14T00:32:41.649Z,99.90
2019-05-14T00:35:32.555Z,99.90
2019-05-14T00:38:22.535Z,99.90
2019-05-14T00:41:12.326Z,99.90
2019-05-14T00:44:01.952Z,99.90
2019-05-14T00:46:51.785Z,99.90
2019-05-14T00:49:42.449Z,99.90
2019-05-14T00:52:32.160Z,99.90
2019-05-14T00:55:22.379Z,99.90
2019-05-14T00:58:12.340Z,99.90
2019-05-14T01:01:01.670Z,99.90
2019-05-14T01:03:52.077Z,99.90
2019-05-14T01:06:42.116Z,99.90
2019-05-14T01:09:31.793Z,99.90
2019-05-14T01:12:21.547Z,99.90
2019-05-14T01:15:14.114Z,99.90
2019-05-14T01:18:02.376Z,99.90
2019-05-14T01:20:52.167Z,99.90
2019-05-14T01:23:42.385Z,99.90
2019-05-14T01:26:31.526Z,99.90
2019-05-14T01:29:21.849Z,99.90
2019-05-14T01:32:11.635Z,99.90
2019-05-14T01:35:01.499Z,99.90
2019-05-14T01:37:52.261Z,99.90
2019-05-14T01:40:42.083Z,99.90
2019-05-14T01:43:32.226Z,99.90
2019-05-14T01:46:21.389Z,99.90
2019-05-14T01:49:12.006Z,99.90
2019-05-14T01:52:01.785Z,99.90
2019-05-14T01:54:51.664Z,99.90
2019-05-14T01:57:42.434Z,99.90
2019-05-14T02:00:31.930Z,99.90
2019-05-14T02:03:21.577Z,99.90
2019-05-14T02:06:11.905Z,99.90
2019-05-14T02:09:02.112Z,99.90
2019-05-14T02:11:52.185Z,99.90
2019-05-14T02:14:42.366Z,99.90
2019-05-14T02:17:32.263Z,99.90
2019-05-14T02:20:21.947Z,99.90
2019-05-14T02:23:12.030Z,99.90
2019-05-14T02:26:02.536Z,99.90
2019-05-14T02:28:52.318Z,99.90
2019-05-14T02:31:41.712Z,99.90
2019-05-14T02:34:31.060Z,99.90
2019-05-14T02:37:20.119Z,99.90
2019-05-14T02:40:10.186Z,99.90
2019-05-14T02:42:59.853Z,99.90
2019-05-14T02:46:02.026Z,99.90
2019-05-14T02:48:40.435Z,99.90
2019-05-14T02:51:30.299Z,99.90
2019-05-14T02:54:20.637Z,99.90
2019-05-14T02:57:10.906Z,99.90
2019-05-14T03:00:00.732Z,99.90
2019-05-14T03:02:49.732Z,99.90
2019-05-14T03:05:40.191Z,99.90
2019-05-14T03:08:30.340Z,99.90
2019-05-14T03:11:20.130Z,99.90
2019-05-14T03:14:09.165Z,99.90
2019-05-14T03:16:59.469Z,99.90
2019-05-14T03:19:49.624Z,99.90
2019-05-14T03:22:46.829Z,99.90
2019-05-14T03:25:30.139Z,99.90
2019-05-14T03:28:19.855Z,99.90
2019-05-14T03:31:12.841Z,99.90
2019-05-14T03:34:02.662Z,99.90
2019-05-14T03:36:52.878Z,99.90
2019-05-14T03:39:39.617Z,99.90
2019-05-14T03:42:29.271Z,99.90
2019-05-14T03:45:19.502Z,99.90
2019-05-14T03:48:09.984Z,99.90
2019-05-14T03:50:59.801Z,99.90
2019-05-14T03:53:56.934Z,99.90
2019-05-14T03:56:39.224Z,99.90
2019-05-14T03:59:29.074Z,99.90
2019-05-14T04:02:19.910Z,99.90
2019-05-14T04:05:09.548Z,99.90
2019-05-14T04:08:00.093Z,99.90
2019-05-14T04:10:53.504Z,99.90
2019-05-14T04:13:40.531Z,99.90
2019-05-14T04:16:29.377Z,99.90
2019-05-14T04:19:20.040Z,99.90
2019-05-14T04:22:10.347Z,99.90
2019-05-14T04:25:00.427Z,99.90
2019-05-14T04:27:49.998Z,99.90
2019-05-14T04:30:40.223Z,99.90
2019-05-14T04:33:30.327Z,99.90
2019-05-14T04:36:19.839Z,99.90
2019-05-14T04:39:09.401Z,99.90
2019-05-14T04:42:00.008Z,99.90
2019-05-14T04:44:50.393Z,99.90
2019-05-14T04:47:42.166Z,99.90
2019-05-14T04:50:29.700Z,99.90
2019-05-14T04:53:19.538Z,99.90
2019-05-14T04:56:09.873Z,99.90
2019-05-14T04:58:59.668Z,99.90
2019-05-14T05:01:49.416Z,99.90
2019-05-14T05:04:40.869Z,99.90
2019-05-14T05:07:29.807Z,99.90
2019-05-14T05:10:19.283Z,99.90
2019-05-14T05:13:09.163Z,99.90
2019-05-14T05:15:59.500Z,99.90
2019-05-14T05:18:49.342Z,99.90
2019-05-14T05:21:38.741Z,99.90
2019-05-14T05:24:28.867Z,99.90
2019-05-14T05:27:18.493Z,99.90
2019-05-14T05:30:08.481Z,99.90
2019-05-14T05:32:59.491Z,99.80
2019-05-14T05:35:48.636Z,97.80
2019-05-14T05:38:39.481Z,96.00
2019-05-14T05:41:29.260Z,95.20
2019-05-14T05:44:18.860Z,94.10
2019-05-14T05:47:09.154Z,99.00
2019-05-14T05:49:59.185Z,98.70
2019-05-14T05:52:49.824Z,98.60
2019-05-14T05:55:39.499Z,99.50
2019-05-14T05:58:29.812Z,97.50
2019-05-14T06:01:19.966Z,97.20
2019-05-14T06:04:09.527Z,97.10
2019-05-14T06:06:58.702Z,95.00
2019-05-14T06:09:48.780Z,94.60
2019-05-14T06:12:38.876Z,94.70
2019-05-14T06:15:44.203Z,96.10
2019-05-14T06:18:22.120Z,99.40
2019-05-14T06:21:10.364Z,99.90
2019-05-14T06:24:02.710Z,99.90
2019-05-14T06:26:49.469Z,99.90
2019-05-14T06:29:38.474Z,99.90
2019-05-14T06:32:29.128Z,99.90
2019-05-14T06:35:19.339Z,99.90
2019-05-14T06:38:09.199Z,99.90
2019-05-14T06:40:59.249Z,99.90
2019-05-14T06:43:49.306Z,99.50
2019-05-14T06:46:39.098Z,99.70
2019-05-14T06:49:29.191Z,99.90
2019-05-14T06:52:18.862Z,99.80
2019-05-14T06:55:09.243Z,99.90
2019-05-14T06:57:58.512Z,99.20
2019-05-14T07:00:49.462Z,98.10
2019-05-14T07:03:39.649Z,98.40
2019-05-14T07:06:29.016Z,99.00
2019-05-14T07:09:18.552Z,97.70
2019-05-14T07:12:09.065Z,95.60
2019-05-14T07:14:58.532Z,96.20
2019-05-14T07:17:48.832Z,95.70
2019-05-14T07:20:39.204Z,95.10
2019-05-14T07:23:28.856Z,94.10
2019-05-14T07:26:19.006Z,93.20
2019-05-14T07:29:11.267Z,93.90
2019-05-14T07:31:58.225Z,94.70
2019-05-14T07:34:48.510Z,94.80
2019-05-14T07:37:39.633Z,96.20
2019-05-14T07:40:29.086Z,95.20
2019-05-14T07:43:18.870Z,94.00
2019-05-14T07:46:08.905Z,92.30
2019-05-14T07:49:07.517Z,92.50
2019-05-14T07:51:48.845Z,91.70
2019-05-14T07:54:38.935Z,91.30
2019-05-14T07:57:28.871Z,92.80
2019-05-14T08:00:19.306Z,94.60
2019-05-14T08:03:08.226Z,95.00
2019-05-14T08:05:58.921Z,98.80
2019-05-14T08:08:49.375Z,99.90
2019-05-14T08:11:38.842Z,99.90
2019-05-14T08:14:29.501Z,99.90
2019-05-14T08:17:19.401Z,99.90
2019-05-14T08:20:10.801Z,99.90
2019-05-14T08:22:59.529Z,99.90
2019-05-14T08:25:49.046Z,99.90
2019-05-14T08:28:38.478Z,99.90
2019-05-14T08:31:29.328Z,99.90
2019-05-14T08:34:19.338Z,99.90
2019-05-14T08:37:08.741Z,99.90
2019-05-14T08:39:58.865Z,99.90
2019-05-14T08:42:48.998Z,99.90
2019-05-14T08:45:39.077Z,99.90
2019-05-14T08:48:29.531Z,99.90
2019-05-14T08:51:19.381Z,99.90
2019-05-14T08:54:08.806Z,99.90
2019-05-14T08:56:58.527Z,99.90
2019-05-14T08:59:48.889Z,99.90
2019-05-14T09:02:39.289Z,99.90
2019-05-14T09:05:29.460Z,99.90
2019-05-14T09:08:19.278Z,98.60
2019-05-14T09:11:09.925Z,99.90
2019-05-14T09:13:59.796Z,99.90
2019-05-14T09:16:51.238Z,99.90
2019-05-14T09:19:56.206Z,99.90
2019-05-14T09:22:30.069Z,96.60
2019-05-14T09:25:19.761Z,93.80
2019-05-14T09:28:09.157Z,94.60
2019-05-14T09:30:59.571Z,95.50
2019-05-14T09:33:49.819Z,97.50
2019-05-14T09:36:39.780Z,94.90
2019-05-14T09:39:29.405Z,93.70
2019-05-14T09:42:19.633Z,93.90
2019-05-14T09:45:11.483Z,93.30
2019-05-14T09:48:01.158Z,92.10
2019-05-14T09:50:50.696Z,91.80
2019-05-14T09:53:39.338Z,91.40
2019-05-14T09:56:29.067Z,91.70
2019-05-14T09:59:18.571Z,91.30
2019-05-14T10:02:09.125Z,90.90
2019-05-14T10:04:59.756Z,90.20
2019-05-14T10:07:49.476Z,90.50
2019-05-14T10:10:39.666Z,91.00
2019-05-14T10:13:28.199Z,90.00
2019-05-14T10:16:18.916Z,84.50
2019-05-14T10:19:06.654Z,85.90
2019-05-14T10:21:54.900Z,87.50
2019-05-14T10:24:43.144Z,87.80
2019-05-14T10:27:32.422Z,86.70
2019-05-14T10:30:21.829Z,86.40
2019-05-14T10:33:14.791Z,88.80
2019-05-14T10:36:00.023Z,83.90
2019-05-14T10:38:48.172Z,85.40
2019-05-14T10:41:38.462Z,83.80
2019-05-14T10:44:29.009Z,85.10
2019-05-14T10:47:18.839Z,84.10
2019-05-14T10:50:13.359Z,82.90
2019-05-14T10:52:59.187Z,78.00
2019-05-14T10:55:48.504Z,80.60
2019-05-14T10:58:36.184Z,80.40
2019-05-14T11:01:24.980Z,80.50
2019-05-14T11:04:13.558Z,82.90
2019-05-14T11:07:01.520Z,83.70
2019-05-14T11:09:50.123Z,84.10
2019-05-14T11:12:39.500Z,78.10
2019-05-14T11:15:28.631Z,78.10
2019-05-14T11:18:19.513Z,78.10
2019-05-14T11:21:19.777Z,80.00
2019-05-14T11:23:58.494Z,80.70
2019-05-14T11:26:48.766Z,80.40
2019-05-14T11:29:38.703Z,77.60
2019-05-14T11:32:29.044Z,76.90
2019-05-14T11:35:18.997Z,78.40
2019-05-14T11:38:24.063Z,79.30
2019-05-14T11:40:58.752Z,79.30
2019-05-14T11:43:49.328Z,80.50
2019-05-14T11:46:50.364Z,80.70
2019-05-14T11:49:27.632Z,80.90
2019-05-14T11:52:17.949Z,78.60
2019-05-14T11:55:08.885Z,78.30
2019-05-14T11:57:58.244Z,79.20
2019-05-14T12:00:46.193Z,79.60
2019-05-14T12:03:34.088Z,79.40
2019-05-14T12:06:22.587Z,80.20
2019-05-14T12:09:11.920Z,79.90
2019-05-14T12:12:00.088Z,80.40
2019-05-14T12:14:48.570Z,79.40
2019-05-14T12:17:39.450Z,79.10
2019-05-14T12:20:29.614Z,78.70
2019-05-14T12:23:19.214Z,78.40
2019-05-14T12:26:09.527Z,79.20
2019-05-14T12:28:59.466Z,78.00
2019-05-14T12:31:50.596Z,78.00
2019-05-14T12:34:39.985Z,77.60
2019-05-14T12:37:29.137Z,78.50
2019-05-14T12:40:19.428Z,80.70
2019-05-14T12:43:09.754Z,80.30
2019-05-14T12:45:59.558Z,79.50
2019-05-14T12:48:49.497Z,80.30
2019-05-14T12:51:42.423Z,80.90
2019-05-14T12:54:30.000Z,81.20
2019-05-14T12:57:19.429Z,80.10
2019-05-14T13:00:10.148Z,79.30
2019-05-14T13:02:59.540Z,81.90
2019-05-14T13:05:49.279Z,79.90
2019-05-14T13:08:38.612Z,79.90
2019-05-14T13:11:28.671Z,81.00
2019-05-14T13:14:17.569Z,80.20
2019-05-14T13:17:09.066Z,80.00
2019-05-14T13:19:57.216Z,80.40
2019-05-14T13:22:49.860Z,80.90
2019-05-14T13:25:39.166Z,79.80
2019-05-14T13:28:29.084Z,82.70
2019-05-14T13:31:18.780Z,79.50
2019-05-14T13:34:08.945Z,79.70
2019-05-14T13:36:59.661Z,78.30
2019-05-14T13:39:52.908Z,79.60
2019-05-14T13:42:44.239Z,80.90
2019-05-14T13:45:31.061Z,80.40
2019-05-14T13:48:19.753Z,79.80
2019-05-14T13:51:09.496Z,79.30
2019-05-14T13:53:59.083Z,78.60
2019-05-14T13:56:48.960Z,78.90
2019-05-14T13:59:44.062Z,80.00
2019-05-14T14:02:31.353Z,80.10
2019-05-14T14:05:20.520Z,78.20
2019-05-14T14:08:10.040Z,79.10
2019-05-14T14:11:02.975Z,78.20
2019-05-14T14:13:50.205Z,78.00
2019-05-14T14:16:39.733Z,78.50
2019-05-14T14:19:29.322Z,77.50
2019-05-14T14:22:19.417Z,78.40
2019-05-14T14:25:09.844Z,77.70
2019-05-14T14:28:00.358Z,77.70
2019-05-14T14:30:49.921Z,77.10
2019-05-14T14:33:39.332Z,76.90
2019-05-14T14:36:30.140Z,78.00
2019-05-14T14:39:19.861Z,76.10
2019-05-14T14:42:09.457Z,76.00
2019-05-14T14:44:58.360Z,77.60
2019-05-14T14:47:49.673Z,76.80
2019-05-14T14:50:38.945Z,76.30
2019-05-14T14:53:42.931Z,77.00
2019-05-14T14:56:19.119Z,76.30
2019-05-14T14:59:09.538Z,76.50
2019-05-14T15:01:59.862Z,76.90
2019-05-14T15:04:50.110Z,76.70
2019-05-14T15:07:40.849Z,76.20
2019-05-14T15:10:30.618Z,76.10
2019-05-14T15:13:19.918Z,75.40
2019-05-14T15:16:13.304Z,76.30
2019-05-14T15:18:59.646Z,77.60
2019-05-14T15:21:49.076Z,77.50
2019-05-14T15:24:38.646Z,76.20
2019-05-14T15:27:28.246Z,76.70
2019-05-14T15:30:18.055Z,75.80
2019-05-14T15:33:09.201Z,76.10
2019-05-14T15:35:58.272Z,76.00
2019-05-14T15:38:48.597Z,76.60
2019-05-14T15:41:39.705Z,75.80
2019-05-14T15:44:46.432Z,76.30
2019-05-14T15:47:19.260Z,74.60
2019-05-14T15:50:09.172Z,74.10
2019-05-14T15:52:57.540Z,74.40
2019-05-14T15:55:45.531Z,74.00
2019-05-14T15:58:34.304Z,74.80
2019-05-14T16:01:22.880Z,75.10
2019-05-14T16:04:12.403Z,75.60
2019-05-14T16:07:01.677Z,76.60
2019-05-14T16:09:50.399Z,75.90
2019-05-14T16:12:40.318Z,76.10
2019-05-14T16:15:29.777Z,74.80
2019-05-14T16:18:22.249Z,74.50
2019-05-14T16:21:10.637Z,75.10
2019-05-14T16:23:59.895Z,75.80
2019-05-14T16:26:48.817Z,76.20
2019-05-14T16:29:45.227Z,75.90
2019-05-14T16:32:28.559Z,76.80
2019-05-14T16:35:21.223Z,77.90
2019-05-14T16:38:08.539Z,77.70
2019-05-14T16:40:59.573Z,78.20
2019-05-14T16:43:49.380Z,78.60
2019-05-14T16:46:39.633Z,78.30
2019-05-14T16:49:29.954Z,78.80
2019-05-14T16:52:19.618Z,79.90
2019-05-14T16:55:22.526Z,78.70
2019-05-14T16:57:58.933Z,79.00
2019-05-14T17:00:47.850Z,78.40
2019-05-14T17:03:39.671Z,79.20
2019-05-14T17:06:29.263Z,78.00
2019-05-14T17:09:18.926Z,78.60
2019-05-14T17:12:08.678Z,77.70
2019-05-14T17:14:58.747Z,77.90
2019-05-14T17:17:48.792Z,79.20
2019-05-14T17:20:39.501Z,79.40
2019-05-14T17:23:28.943Z,79.60
2019-05-14T17:26:18.799Z,78.00
2019-05-14T17:29:08.709Z,77.20
2019-05-14T17:31:58.384Z,76.70
2019-05-14T17:34:49.075Z,76.60
2019-05-14T17:37:39.716Z,76.90
2019-05-14T17:40:29.104Z,76.90
2019-05-14T17:43:19.152Z,77.50
2019-05-14T17:46:09.748Z,78.80
2019-05-14T17:48:59.852Z,78.80
2019-05-14T17:51:48.643Z,78.90
2019-05-14T17:54:41.632Z,77.10
2019-05-14T17:57:34.980Z,77.40
2019-05-14T18:00:19.915Z,77.50
2019-05-14T18:03:09.744Z,78.00
2019-05-14T18:05:59.079Z,78.60
2019-05-14T18:08:48.117Z,79.00
2019-05-14T18:11:37.067Z,76.90
2019-05-14T18:14:28.435Z,75.10
2019-05-14T18:17:18.822Z,75.80
2019-05-14T18:20:09.302Z,76.70
2019-05-14T18:22:58.548Z,78.30
2019-05-14T18:26:02.802Z,79.30
2019-05-14T18:28:38.647Z,79.70
2019-05-14T18:31:27.422Z,80.00
2019-05-14T18:34:18.818Z,79.70
2019-05-14T18:37:13.467Z,80.80
2019-05-14T18:39:58.599Z,81.80
2019-05-14T18:42:48.409Z,83.20
2019-05-14T18:45:38.866Z,84.60
2019-05-14T18:48:29.003Z,84.80
2019-05-14T18:51:19.687Z,85.80
2019-05-14T18:54:09.626Z,86.50
2019-05-14T18:56:59.656Z,86.60
2019-05-14T18:59:49.520Z,87.50
2019-05-14T19:02:39.523Z,89.60
2019-05-14T19:05:29.464Z,90.00
2019-05-14T19:08:19.421Z,90.70
2019-05-14T19:11:08.550Z,91.20
2019-05-14T19:13:57.676Z,91.10
2019-05-14T19:16:48.997Z,91.60
2019-05-14T19:19:38.605Z,91.60
2019-05-14T19:22:28.857Z,91.70
2019-05-14T19:25:18.627Z,92.00
2019-05-14T19:28:08.890Z,93.20
2019-05-14T19:30:59.552Z,93.10
2019-05-14T19:33:49.441Z,93.10
2019-05-14T19:36:39.986Z,93.00
2019-05-14T19:39:29.113Z,93.10
2019-05-14T19:42:18.455Z,93.10
2019-05-14T19:45:08.459Z,93.30
2019-05-14T19:47:58.605Z,94.40
2019-05-14T19:50:49.089Z,94.40
2019-05-14T19:53:39.226Z,94.80
2019-05-14T19:56:29.349Z,95.20
2019-05-14T19:59:19.103Z,97.10
2019-05-14T20:02:09.556Z,97.50
2019-05-14T20:04:59.597Z,99.10
2019-05-14T20:07:49.143Z,99.90
2019-05-14T20:10:39.257Z,99.90
2019-05-14T20:13:28.819Z,99.90
2019-05-14T20:16:18.442Z,99.90
2019-05-14T20:19:08.861Z,99.90
2019-05-14T20:21:58.764Z,99.90
2019-05-14T20:24:48.824Z,99.90
2019-05-14T20:27:38.978Z,99.90
2019-05-14T20:30:29.687Z,99.90
2019-05-14T20:33:19.481Z,99.90
2019-05-14T20:36:08.985Z,99.90
2019-05-14T20:38:58.899Z,99.90
2019-05-14T20:41:49.052Z,99.90
2019-05-14T20:44:38.894Z,99.90
2019-05-14T20:47:28.224Z,99.90
2019-05-14T20:50:18.316Z,99.90
2019-05-14T20:53:08.471Z,99.90
2019-05-14T20:55:58.842Z,99.90
2019-05-14T20:58:48.324Z,99.90
2019-05-14T21:01:38.676Z,99.90
2019-05-14T21:04:28.271Z,99.90
2019-05-14T21:07:17.721Z,99.90
2019-05-14T21:10:09.380Z,99.90
2019-05-14T21:12:58.364Z,99.90
2019-05-14T21:15:48.349Z,99.90
2019-05-14T21:18:40.967Z,99.90
2019-05-14T21:21:28.428Z,99.90
2019-05-14T21:24:21.981Z,99.90
2019-05-14T21:27:09.331Z,99.90
2019-05-14T21:29:58.673Z,99.90
2019-05-14T21:32:48.384Z,99.90
2019-05-14T21:35:38.977Z,99.90
2019-05-14T21:38:28.742Z,99.90
2019-05-14T21:41:20.480Z,99.90
2019-05-14T21:44:09.570Z,99.90
2019-05-14T21:47:00.522Z,99.90
2019-05-14T21:49:50.322Z,99.90
2019-05-14T21:52:42.392Z,99.90
2019-05-14T21:55:30.693Z,99.90
2019-05-14T21:58:19.975Z,99.90
2019-05-14T22:01:10.769Z,99.90
2019-05-14T22:03:59.932Z,99.90
2019-05-14T22:06:49.074Z,99.90
2019-05-14T22:09:41.117Z,99.90
2019-05-14T22:12:28.267Z,99.90
2019-05-14T22:15:18.427Z,99.90
2019-05-14T22:18:14.946Z,99.90
2019-05-14T22:20:57.994Z,99.90
2019-05-14T22:23:48.162Z,99.90
2019-05-14T22:26:38.787Z,99.90
2019-05-14T22:29:28.599Z,99.90
2019-05-14T22:32:19.093Z,99.90
2019-05-14T22:35:08.688Z,99.90
2019-05-14T22:37:59.254Z,99.90
2019-05-14T22:40:48.295Z,99.90
2019-05-14T22:43:38.221Z,99.90
2019-05-14T22:46:25.743Z,99.90
2019-05-14T22:49:13.873Z,99.90
2019-05-14T22:52:01.873Z,99.90
2019-05-14T22:54:50.215Z,99.90
2019-05-14T22:57:39.537Z,99.90
2019-05-14T23:00:28.717Z,99.90
2019-05-14T23:03:18.367Z,99.90
2019-05-14T23:06:09.010Z,99.90
2019-05-14T23:08:58.197Z,99.90
2019-05-14T23:11:48.026Z,99.90
2019-05-14T23:14:38.924Z,99.90
2019-05-14T23:17:27.958Z,99.90
2019-05-14T23:20:16.059Z,99.90
2019-05-14T23:23:05.423Z,99.90
2019-05-14T23:25:53.361Z,99.90
2019-05-14T23:28:45.750Z,99.90
2019-05-14T23:31:32.930Z,99.90
2019-05-14T23:34:22.393Z,99.90
2019-05-14T23:37:11.476Z,99.90
2019-05-14T23:40:01.251Z,99.90
2019-05-14T23:42:50.441Z,99.90
2019-05-14T23:45:39.269Z,99.90
2019-05-14T23:48:27.026Z,99.90
2019-05-14T23:51:15.352Z,99.90
2019-05-14T23:54:03.925Z,99.90
2019-05-14T23:56:52.244Z,99.90
2019-05-14T23:59:40.649Z,99.90
